createdAt,value
2017-07-02T00:02:14.898Z,3.03
2017-07-02T00:04:47.070Z,3.07
2017-07-02T00:07:25.021Z,3.57
2017-07-02T00:09:56.326Z,3.43
2017-07-02T00:12:25.469Z,3.53
2017-07-02T00:14:52.953Z,4.00
2017-07-02T00:17:20.444Z,4.40
2017-07-02T00:19:47.918Z,4.50
2017-07-02T00:22:25.973Z,4.90
2017-07-02T00:24:54.454Z,5.70
2017-07-02T00:27:24.866Z,4.93
2017-07-02T00:29:55.468Z,4.93
2017-07-02T00:32:25.936Z,5.10
2017-07-02T00:34:53.748Z,5.73
2017-07-02T00:37:21.231Z,5.47
2017-07-02T00:39:55.567Z,6.37
2017-07-02T00:42:23.054Z,5.93
2017-07-02T00:44:50.560Z,7.53
2017-07-02T00:47:25.190Z,7.90
2017-07-02T00:49:52.658Z,6.80
2017-07-02T00:52:20.405Z,7.07
2017-07-02T00:54:47.889Z,7.90
2017-07-02T00:57:15.361Z,7.97
2017-07-02T00:59:46.095Z,8.60
2017-07-02T01:02:13.580Z,8.70
2017-07-02T01:04:42.174Z,10.50
2017-07-02T01:07:09.660Z,9.17
2017-07-02T01:09:45.496Z,8.47
2017-07-02T01:12:12.983Z,11.30
2017-07-02T01:14:40.465Z,11.17
2017-07-02T01:17:08.247Z,9.33
2017-07-02T01:19:45.493Z,11.23
2017-07-02T01:22:13.310Z,11.67
2017-07-02T01:24:40.808Z,11.10
2017-07-02T01:27:08.296Z,11.00
2017-07-02T01:29:45.986Z,11.87
2017-07-02T01:32:16.725Z,11.70
2017-07-02T01:34:44.525Z,12.00
2017-07-02T01:37:12.779Z,12.37
2017-07-02T01:39:46.140Z,13.03
2017-07-02T01:42:14.931Z,12.77
2017-07-02T01:44:45.829Z,13.17
2017-07-02T01:47:15.003Z,13.23
2017-07-02T01:49:42.488Z,13.30
2017-07-02T01:52:11.064Z,13.10
2017-07-02T01:54:38.550Z,11.63
2017-07-02T01:57:06.025Z,13.83
2017-07-02T01:59:35.141Z,12.70
2017-07-02T02:02:27.282Z,13.00
2017-07-02T02:04:54.775Z,13.90
2017-07-02T02:07:22.267Z,12.97
2017-07-02T02:09:56.410Z,13.80
2017-07-02T02:12:23.984Z,13.33
2017-07-02T02:14:51.483Z,11.27
2017-07-02T02:17:18.986Z,11.40
2017-07-02T02:19:54.522Z,11.67
2017-07-02T02:22:22.329Z,13.17
2017-07-02T02:24:55.627Z,10.93
2017-07-02T02:27:23.419Z,12.17
2017-07-02T02:29:56.781Z,10.97
2017-07-02T02:32:25.383Z,10.93
2017-07-02T02:34:52.875Z,12.43
2017-07-02T02:37:20.359Z,15.40
2017-07-02T02:39:54.852Z,14.53
2017-07-02T02:42:22.330Z,13.90
2017-07-02T02:44:50.240Z,14.00
2017-07-02T02:47:18.472Z,12.47
2017-07-02T02:49:56.423Z,15.27
2017-07-02T02:52:24.974Z,12.97
2017-07-02T02:54:55.938Z,13.30
2017-07-02T02:57:25.114Z,12.80
2017-07-02T02:59:55.970Z,12.10
2017-07-02T03:02:23.459Z,15.80
2017-07-02T03:04:50.946Z,13.47
2017-07-02T03:07:18.458Z,13.47
2017-07-02T03:09:55.837Z,13.77
2017-07-02T03:12:24.430Z,12.87
2017-07-02T03:14:52.682Z,12.80
2017-07-02T03:17:26.999Z,12.93
2017-07-02T03:19:54.479Z,11.20
2017-07-02T03:22:22.728Z,10.73
2017-07-02T03:24:56.450Z,10.90
2017-07-02T03:27:24.701Z,13.70
2017-07-02T03:29:56.287Z,10.73
2017-07-02T03:32:25.446Z,12.40
2017-07-02T03:34:56.428Z,11.57
2017-07-02T03:37:25.686Z,9.63
2017-07-02T03:39:53.165Z,10.57
2017-07-02T03:42:26.585Z,13.03
2017-07-02T03:44:54.838Z,11.57
2017-07-02T03:47:26.422Z,11.20
2017-07-02T03:49:53.897Z,10.23
2017-07-02T03:52:21.383Z,9.20
2017-07-02T03:54:54.636Z,9.80
2017-07-02T03:57:22.122Z,10.00
2017-07-02T03:59:49.958Z,11.80
2017-07-02T04:02:24.374Z,9.77
2017-07-02T04:04:52.146Z,9.40
2017-07-02T04:07:25.498Z,9.20
2017-07-02T04:09:56.675Z,9.60
2017-07-02T04:12:24.979Z,10.17
2017-07-02T04:14:55.478Z,9.30
2017-07-02T04:17:25.081Z,9.20
2017-07-02T04:19:56.563Z,8.97
2017-07-02T04:22:25.071Z,9.00
2017-07-02T04:24:55.613Z,8.47
2017-07-02T04:27:23.104Z,9.67
2017-07-02T04:29:50.618Z,10.47
2017-07-02T04:32:24.852Z,9.10
2017-07-02T04:34:52.622Z,8.60
2017-07-02T04:37:20.099Z,8.13
2017-07-02T04:39:48.340Z,7.97
2017-07-02T04:42:15.832Z,8.33
2017-07-02T04:44:44.781Z,7.30
2017-07-02T04:47:15.668Z,9.60
2017-07-02T04:49:44.819Z,9.10
2017-07-02T04:52:15.696Z,7.20
2017-07-02T04:54:44.870Z,8.77
2017-07-02T04:57:13.248Z,8.30
2017-07-02T04:59:40.737Z,8.50
2017-07-02T05:02:08.997Z,8.63
2017-07-02T05:04:45.068Z,6.93
2017-07-02T05:07:13.309Z,6.43
2017-07-02T05:09:47.322Z,7.83
2017-07-02T05:12:14.806Z,7.30
2017-07-02T05:14:46.538Z,7.00
2017-07-02T05:17:14.022Z,7.90
2017-07-02T05:19:42.283Z,7.17
2017-07-02T05:22:10.078Z,7.03
2017-07-02T05:24:44.412Z,7.53
2017-07-02T05:27:15.440Z,6.67
2017-07-02T05:29:42.930Z,5.70
2017-07-02T05:32:10.401Z,6.43
2017-07-02T05:34:44.783Z,6.20
2017-07-02T05:37:15.674Z,6.83
2017-07-02T05:39:46.659Z,8.87
2017-07-02T05:42:14.894Z,5.63
2017-07-02T05:44:42.381Z,6.90
2017-07-02T05:47:09.876Z,5.67
2017-07-02T05:49:37.362Z,6.37
2017-07-02T05:52:05.158Z,7.63
2017-07-02T05:54:33.407Z,6.07
2017-07-02T05:57:00.881Z,6.47
2017-07-02T05:59:35.067Z,6.70
2017-07-02T06:02:02.547Z,6.73
2017-07-02T06:04:30.334Z,6.20
2017-07-02T06:07:04.588Z,5.93
2017-07-02T06:09:32.355Z,5.83
2017-07-02T06:12:05.697Z,5.60
2017-07-02T06:14:33.480Z,5.80
2017-07-02T06:17:01.743Z,6.13
2017-07-02T06:19:29.213Z,7.53
2017-07-02T06:22:04.815Z,5.23
2017-07-02T06:24:32.305Z,5.40
2017-07-02T06:27:00.892Z,5.60
2017-07-02T06:29:35.622Z,6.30
2017-07-02T06:32:03.402Z,4.73
2017-07-02T06:34:30.890Z,5.17
2017-07-02T06:37:05.482Z,6.20
2017-07-02T06:39:33.727Z,5.43
2017-07-02T06:42:02.023Z,5.20
2017-07-02T06:44:36.161Z,4.97
2017-07-02T06:47:03.649Z,5.13
2017-07-02T06:49:31.473Z,4.90
2017-07-02T06:51:58.947Z,4.83
2017-07-02T06:54:26.425Z,5.37
2017-07-02T06:56:54.198Z,4.40
2017-07-02T06:59:21.699Z,5.50
2017-07-02T07:01:49.179Z,3.80
2017-07-02T07:04:16.685Z,4.63
2017-07-02T07:06:44.167Z,5.50
2017-07-02T07:09:11.947Z,5.40
2017-07-02T07:11:46.159Z,4.67
2017-07-02T07:14:15.384Z,3.77
2017-07-02T07:16:42.883Z,4.30
2017-07-02T07:19:17.190Z,4.20
2017-07-02T07:21:44.673Z,4.23
2017-07-02T07:24:12.239Z,5.27
2017-07-02T07:26:39.717Z,4.60
2017-07-02T07:29:07.210Z,4.03
2017-07-02T07:31:34.956Z,3.33
2017-07-02T07:34:05.455Z,4.23
2017-07-02T07:36:32.935Z,4.33
2017-07-02T07:39:00.431Z,3.93
2017-07-02T07:41:34.923Z,3.90
2017-07-02T07:44:02.681Z,4.17
2017-07-02T07:46:36.062Z,4.47
2017-07-02T07:49:04.593Z,3.80
2017-07-02T07:51:35.580Z,2.90
2017-07-02T07:54:04.182Z,4.40
2017-07-02T07:56:37.425Z,3.50
2017-07-02T07:59:05.230Z,4.10
2017-07-02T08:01:32.712Z,3.20
2017-07-02T08:04:00.229Z,4.40
2017-07-02T08:06:34.745Z,4.47
2017-07-02T08:09:02.225Z,3.13
2017-07-02T08:11:37.095Z,3.20
2017-07-02T08:14:04.578Z,3.30
2017-07-02T08:16:32.067Z,3.40
2017-07-02T08:19:06.918Z,3.57
2017-07-02T08:21:34.731Z,3.03
2017-07-02T08:24:02.478Z,2.90
2017-07-02T08:26:35.616Z,2.93
2017-07-02T08:29:04.211Z,2.57
2017-07-02T08:31:35.086Z,3.37
2017-07-02T08:34:02.552Z,3.43
2017-07-02T08:36:35.998Z,3.40
2017-07-02T08:39:04.791Z,3.43
2017-07-02T08:41:35.639Z,2.70
2017-07-02T08:44:04.731Z,3.07
2017-07-02T08:46:32.202Z,3.10
2017-07-02T08:48:59.695Z,4.57
2017-07-02T08:51:27.169Z,2.63
2017-07-02T08:53:55.464Z,3.00
2017-07-02T08:56:24.840Z,3.20
2017-07-02T08:58:52.334Z,3.20
2017-07-02T09:01:20.593Z,2.80
2017-07-02T09:03:48.076Z,2.27
2017-07-02T09:06:26.115Z,2.33
2017-07-02T09:08:56.628Z,2.90
2017-07-02T09:11:24.127Z,3.00
2017-07-02T09:13:51.615Z,3.23
2017-07-02T09:16:25.171Z,2.53
2017-07-02T09:18:52.997Z,2.57
2017-07-02T09:21:20.485Z,3.00
2017-07-02T09:23:55.403Z,3.50
2017-07-02T09:26:25.858Z,2.97
2017-07-02T09:28:53.431Z,2.60
2017-07-02T09:31:20.934Z,2.33
2017-07-02T09:33:48.422Z,3.10
2017-07-02T09:36:26.277Z,3.00
2017-07-02T09:38:54.880Z,2.90
2017-07-02T09:41:25.390Z,2.77
2017-07-02T09:43:55.981Z,3.07
2017-07-02T09:46:23.468Z,2.50
2017-07-02T09:48:51.227Z,3.17
2017-07-02T09:51:18.708Z,3.53
2017-07-02T09:53:55.131Z,2.30
2017-07-02T09:56:25.528Z,2.73
2017-07-02T09:58:53.006Z,2.70
2017-07-02T10:01:20.490Z,2.40
2017-07-02T10:03:47.966Z,2.30
2017-07-02T10:06:16.483Z,2.30
2017-07-02T10:08:45.615Z,2.73
2017-07-02T10:11:16.497Z,2.67
2017-07-02T10:13:43.987Z,3.50
2017-07-02T10:16:11.559Z,3.00
2017-07-02T10:18:45.557Z,3.40
2017-07-02T10:21:13.046Z,2.67
2017-07-02T10:23:40.886Z,3.37
2017-07-02T10:26:15.133Z,2.87
2017-07-02T10:28:42.935Z,2.73
2017-07-02T10:31:16.319Z,2.77
2017-07-02T10:33:44.915Z,2.77
2017-07-02T10:36:12.387Z,2.70
2017-07-02T10:38:46.562Z,3.00
2017-07-02T10:41:15.014Z,3.23
2017-07-02T10:43:42.502Z,2.80
2017-07-02T10:46:10.006Z,2.37
2017-07-02T10:48:45.356Z,2.50
2017-07-02T10:51:13.182Z,2.20
2017-07-02T10:53:44.839Z,2.47
2017-07-02T10:56:12.326Z,1.90
2017-07-02T10:58:39.854Z,2.43
2017-07-02T11:01:07.336Z,2.53
2017-07-02T11:03:34.824Z,2.30
2017-07-02T11:06:05.987Z,2.70
2017-07-02T11:08:33.475Z,2.03
2017-07-02T11:11:00.958Z,2.67
2017-07-02T11:13:35.254Z,2.57
2017-07-02T11:16:06.156Z,2.90
2017-07-02T11:18:35.099Z,1.90
2017-07-02T11:21:06.393Z,1.80
2017-07-02T11:23:33.891Z,2.07
2017-07-02T11:26:02.152Z,1.73
2017-07-02T11:28:29.630Z,2.10
2017-07-02T11:31:04.718Z,2.10
2017-07-02T11:33:32.194Z,1.40
2017-07-02T11:35:59.674Z,1.73
2017-07-02T11:38:27.559Z,1.40
2017-07-02T11:40:55.062Z,1.53
2017-07-02T11:43:22.537Z,1.43
2017-07-02T11:45:50.035Z,1.63
2017-07-02T11:48:17.525Z,2.00
2017-07-02T11:50:45.351Z,1.60
2017-07-02T11:53:15.747Z,1.20
2017-07-02T11:55:43.221Z,1.60
2017-07-02T11:58:16.555Z,2.00
2017-07-02T12:00:44.036Z,1.27
2017-07-02T12:03:15.236Z,1.00
2017-07-02T12:05:42.719Z,1.07
2017-07-02T12:08:16.125Z,1.20
2017-07-02T12:10:43.610Z,1.47
2017-07-02T12:13:11.103Z,1.30
2017-07-02T12:15:44.698Z,0.83
2017-07-02T12:18:12.954Z,0.90
2017-07-02T12:20:47.149Z,1.60
2017-07-02T12:23:14.617Z,1.30
2017-07-02T12:25:42.099Z,1.30
2017-07-02T12:28:10.370Z,0.93
2017-07-02T12:30:44.950Z,1.20
2017-07-02T12:33:12.439Z,1.40
2017-07-02T12:35:39.920Z,1.37
2017-07-02T12:38:08.457Z,1.23
2017-07-02T12:40:35.940Z,1.63
2017-07-02T12:43:03.419Z,1.50
2017-07-02T12:45:34.763Z,1.23
2017-07-02T12:48:05.239Z,1.13
2017-07-02T12:50:33.071Z,1.23
2017-07-02T12:53:07.116Z,1.80
2017-07-02T12:55:35.267Z,1.10
2017-07-02T12:58:02.762Z,1.80
2017-07-02T13:00:37.228Z,1.30
2017-07-02T13:03:15.417Z,1.63
2017-07-02T13:05:43.198Z,1.30
2017-07-02T13:08:11.442Z,1.50
2017-07-02T13:10:38.927Z,1.60
2017-07-02T13:13:07.182Z,1.13
2017-07-02T13:15:34.882Z,1.63
2017-07-02T13:18:06.743Z,1.23
2017-07-02T13:20:34.218Z,1.23
2017-07-02T13:23:01.693Z,1.60
2017-07-02T13:25:29.178Z,1.83
2017-07-02T13:27:56.666Z,2.13
2017-07-02T13:30:35.407Z,1.73
2017-07-02T13:33:02.877Z,1.70
2017-07-02T13:35:36.419Z,2.10
2017-07-02T13:38:03.910Z,1.87
2017-07-02T13:40:31.395Z,1.77
2017-07-02T13:42:58.874Z,1.97
2017-07-02T13:45:26.350Z,2.23
2017-07-02T13:47:54.159Z,1.80
2017-07-02T13:50:21.625Z,1.60
2017-07-02T13:52:55.924Z,1.80
2017-07-02T13:55:23.524Z,1.90
2017-07-02T13:57:51.015Z,1.27
2017-07-02T14:00:24.676Z,1.93
2017-07-02T14:02:52.160Z,1.50
2017-07-02T14:05:19.973Z,2.90
2017-07-02T14:07:55.323Z,1.57
2017-07-02T14:10:26.556Z,1.93
2017-07-02T14:12:54.815Z,1.70
2017-07-02T14:15:25.531Z,1.73
2017-07-02T14:17:56.067Z,1.87
2017-07-02T14:20:26.594Z,1.87
2017-07-02T14:22:54.428Z,1.70
2017-07-02T14:25:25.743Z,1.90
2017-07-02T14:27:54.329Z,1.33
2017-07-02T14:30:24.880Z,1.27
2017-07-02T14:32:52.380Z,1.57
2017-07-02T14:35:20.155Z,1.60
2017-07-02T14:37:47.621Z,1.80
2017-07-02T14:40:25.140Z,2.23
2017-07-02T14:42:52.624Z,1.90
2017-07-02T14:45:26.299Z,2.40
2017-07-02T14:47:53.779Z,2.10
2017-07-02T14:50:27.706Z,2.03
2017-07-02T14:53:04.921Z,1.93
2017-07-02T14:55:32.723Z,1.93
2017-07-02T14:58:00.208Z,1.57
2017-07-02T15:00:27.690Z,2.20
2017-07-02T15:02:55.193Z,2.93
2017-07-02T15:05:26.377Z,1.90
2017-07-02T15:07:55.161Z,1.97
2017-07-02T15:10:22.637Z,2.80
2017-07-02T15:12:56.168Z,2.50
2017-07-02T15:15:25.657Z,2.60
2017-07-02T15:17:56.557Z,2.00
2017-07-02T15:20:24.028Z,2.20
2017-07-02T15:22:51.523Z,2.70
2017-07-02T15:25:25.847Z,2.77
2017-07-02T15:27:53.337Z,2.10
2017-07-02T15:30:27.393Z,2.53
2017-07-02T15:32:54.872Z,2.77
2017-07-02T15:35:23.118Z,2.50
2017-07-02T15:37:56.952Z,1.93
2017-07-02T15:40:25.201Z,2.53
2017-07-02T15:42:56.811Z,2.40
2017-07-02T15:45:24.305Z,1.83
2017-07-02T15:47:55.595Z,1.77
2017-07-02T15:50:25.291Z,2.33
2017-07-02T15:52:55.795Z,2.07
2017-07-02T15:55:23.621Z,2.30
2017-07-02T15:57:51.120Z,2.50
2017-07-02T16:00:24.743Z,2.00
2017-07-02T16:02:55.168Z,1.87
2017-07-02T16:05:26.136Z,1.47
2017-07-02T16:07:53.628Z,2.07
2017-07-02T16:10:21.123Z,1.67
2017-07-02T16:12:48.610Z,1.60
2017-07-02T16:15:25.852Z,1.90
2017-07-02T16:17:53.663Z,2.43
2017-07-02T16:20:21.907Z,2.33
2017-07-02T16:22:49.391Z,1.43
2017-07-02T16:25:17.162Z,1.63
2017-07-02T16:27:44.646Z,1.40
2017-07-02T16:30:12.139Z,1.07
2017-07-02T16:32:39.640Z,2.03
2017-07-02T16:35:07.117Z,1.47
2017-07-02T16:37:35.674Z,1.50
2017-07-02T16:40:04.971Z,1.77
2017-07-02T16:42:32.453Z,1.60
2017-07-02T16:45:05.896Z,1.97
2017-07-02T16:47:34.718Z,1.60
2017-07-02T16:50:05.615Z,1.70
2017-07-02T16:52:33.097Z,2.00
2017-07-02T16:55:00.583Z,1.50
2017-07-02T16:57:28.078Z,1.90
2017-07-02T17:00:05.430Z,1.87
2017-07-02T17:02:34.063Z,2.40
2017-07-02T17:05:01.523Z,1.63
2017-07-02T17:07:35.335Z,2.20
2017-07-02T17:10:05.854Z,1.60
2017-07-02T17:12:36.743Z,2.20
2017-07-02T17:15:04.995Z,1.97
2017-07-02T17:17:35.509Z,1.90
2017-07-02T17:20:06.121Z,2.10
2017-07-02T17:22:33.876Z,1.97
2017-07-02T17:25:02.465Z,1.67
2017-07-02T17:27:29.938Z,1.33
2017-07-02T17:30:05.343Z,1.40
2017-07-02T17:37:51.366Z,1.57
2017-07-02T17:40:19.223Z,1.40
2017-07-02T17:42:54.990Z,1.60
2017-07-02T17:45:22.751Z,1.60
2017-07-02T17:47:56.021Z,1.80
2017-07-02T17:50:23.812Z,1.67
2017-07-02T17:52:51.303Z,2.20
2017-07-02T17:55:18.783Z,2.57
2017-07-02T17:57:46.304Z,1.63
2017-07-02T18:00:13.796Z,1.50
2017-07-02T18:02:45.173Z,1.80
2017-07-02T18:05:13.431Z,1.60
2017-07-02T18:07:40.921Z,1.67
2017-07-02T18:10:08.423Z,1.53
2017-07-02T18:12:46.003Z,1.93
2017-07-02T18:15:13.820Z,1.40
2017-07-02T18:17:45.507Z,1.90
2017-07-02T18:20:16.297Z,1.63
2017-07-02T18:22:43.767Z,1.50
2017-07-02T18:25:17.253Z,2.17
2017-07-02T18:27:44.862Z,1.60
2017-07-02T18:30:12.361Z,1.70
2017-07-02T18:32:40.125Z,1.57
2017-07-02T18:35:07.608Z,1.40
2017-07-02T18:37:45.398Z,1.87
2017-07-02T18:40:15.858Z,1.23
2017-07-02T18:42:44.100Z,1.30
2017-07-02T18:45:15.021Z,1.37
2017-07-02T18:47:45.634Z,1.57
2017-07-02T18:50:16.540Z,1.37
2017-07-02T18:52:44.012Z,1.40
2017-07-02T18:55:11.485Z,1.47
2017-07-02T18:57:38.970Z,1.43
2017-07-02T19:00:16.258Z,1.50
2017-07-02T19:02:44.055Z,1.30
2017-07-02T19:05:12.307Z,1.33
2017-07-02T19:07:39.787Z,1.47
2017-07-02T19:10:07.280Z,1.60
2017-07-02T19:12:34.759Z,1.43
2017-07-02T19:15:02.573Z,1.33
2017-07-02T19:17:30.067Z,1.13
2017-07-02T19:19:57.557Z,1.47
2017-07-02T19:22:35.259Z,2.03
2017-07-02T19:25:02.742Z,1.43
2017-07-02T19:27:30.524Z,1.33
2017-07-02T19:30:04.789Z,1.20
2017-07-02T19:32:35.983Z,1.43
2017-07-02T19:35:03.483Z,1.43
2017-07-02T19:37:30.962Z,1.23
2017-07-02T19:39:58.462Z,1.47
2017-07-02T19:42:25.951Z,1.50
2017-07-02T19:44:53.775Z,1.20
2017-07-02T19:47:25.040Z,1.40
2017-07-02T19:49:52.514Z,1.70
2017-07-02T19:52:20.003Z,1.67
2017-07-02T19:54:47.481Z,1.43
2017-07-02T19:57:26.061Z,2.10
2017-07-02T19:59:56.462Z,1.53
2017-07-02T20:02:23.949Z,0.80
2017-07-02T20:04:51.432Z,1.57
2017-07-02T20:07:18.914Z,1.33
2017-07-02T20:09:47.499Z,1.70
2017-07-02T20:12:15.743Z,1.23
2017-07-02T20:14:43.223Z,1.20
2017-07-02T20:17:17.286Z,1.10
2017-07-02T20:19:45.073Z,1.23
2017-07-02T20:22:15.958Z,1.33
2017-07-02T20:24:43.445Z,1.50
2017-07-02T20:27:10.914Z,1.23
2017-07-02T20:29:38.419Z,1.00
2017-07-02T20:32:15.624Z,1.30
2017-07-02T20:34:43.469Z,1.57
2017-07-02T20:37:10.953Z,1.37
2017-07-02T20:39:38.434Z,1.40
2017-07-02T20:42:05.946Z,1.40
2017-07-02T20:44:34.753Z,1.00
2017-07-02T20:47:02.511Z,1.20
2017-07-02T20:49:30.002Z,1.70
2017-07-02T20:52:05.517Z,1.30
2017-07-02T20:54:36.013Z,1.40
2017-07-02T20:57:06.866Z,1.10
2017-07-02T20:59:35.062Z,1.20
2017-07-02T21:02:02.548Z,1.03
2017-07-02T21:04:35.971Z,1.40
2017-07-02T21:07:06.671Z,1.00
2017-07-02T21:09:34.412Z,1.30
2017-07-02T21:12:01.895Z,1.03
2017-07-02T21:14:36.316Z,1.27
2017-07-02T21:17:03.804Z,1.20
2017-07-02T21:19:31.274Z,1.47
2017-07-02T21:22:04.775Z,1.23
2017-07-02T21:24:32.249Z,1.87
2017-07-02T21:27:06.349Z,1.37
2017-07-02T21:29:33.849Z,1.73
2017-07-02T21:32:01.334Z,1.20
2017-07-02T21:34:28.813Z,1.50
2017-07-02T21:36:56.300Z,1.03
2017-07-02T21:39:24.080Z,1.57
2017-07-02T21:41:51.567Z,1.50
2017-07-02T21:44:19.047Z,1.63
2017-07-02T21:46:56.304Z,1.20
2017-07-02T21:49:23.785Z,1.20
2017-07-02T21:51:57.693Z,1.37
2017-07-02T21:54:25.177Z,1.07
2017-07-02T21:56:52.659Z,1.30
2017-07-02T21:59:26.190Z,1.20
2017-07-02T22:01:53.669Z,1.40
2017-07-02T22:04:27.527Z,1.13
2017-07-02T22:06:54.996Z,1.20
2017-07-02T22:09:25.621Z,1.27
2017-07-02T22:11:56.034Z,1.20
2017-07-02T22:14:23.505Z,1.17
2017-07-02T22:16:51.259Z,1.43
2017-07-02T22:19:18.747Z,1.37
2017-07-02T22:21:56.189Z,1.40
2017-07-02T22:24:24.431Z,1.20
2017-07-02T22:26:55.333Z,1.30
2017-07-02T22:29:22.827Z,1.40
2017-07-02T22:31:56.147Z,1.90
2017-07-02T22:34:23.943Z,1.57
2017-07-02T22:36:51.427Z,1.50
2017-07-02T22:39:18.920Z,1.10
2017-07-02T22:41:46.406Z,1.70
2017-07-02T22:44:13.882Z,1.60
2017-07-02T22:46:41.730Z,1.50
2017-07-02T22:49:09.973Z,1.23
2017-07-02T22:51:45.107Z,1.60
2017-07-02T22:54:15.530Z,1.30
2017-07-02T22:56:46.516Z,1.30
2017-07-02T22:59:14.010Z,1.30
2017-07-02T23:01:41.485Z,1.23
2017-07-02T23:04:08.983Z,1.40
2017-07-02T23:06:45.138Z,1.73
2017-07-02T23:09:12.917Z,1.10
2017-07-02T23:11:47.345Z,1.43
2017-07-02T23:14:15.095Z,1.20
2017-07-02T23:16:46.547Z,0.97
2017-07-02T23:19:14.044Z,1.50
2017-07-02T23:21:41.534Z,1.77
2017-07-02T23:24:15.002Z,1.47
2017-07-02T23:26:42.768Z,1.50
2017-07-02T23:29:10.270Z,1.67
2017-07-02T23:31:37.745Z,1.50
2017-07-02T23:34:06.350Z,2.13
2017-07-02T23:36:35.453Z,1.77
2017-07-02T23:39:02.938Z,1.20
2017-07-02T23:41:36.311Z,1.33
2017-07-02T23:44:05.035Z,1.30
2017-07-02T23:46:32.811Z,1.77
2017-07-02T23:49:00.287Z,1.97
2017-07-02T23:51:27.762Z,1.70
2017-07-02T23:54:05.191Z,1.50
2017-07-02T23:56:32.674Z,1.40
2017-07-02T23:59:06.298Z,1.90
